sensor_id;sensor_type;location;lat;lon;timestamp;P1;durP1;ratioP1;P2;durP2;ratioP2
54883;SDS011;40776;52.880;6.016;2022-09-21T13:59:34;7.30;;;1.00;;
54883;SDS011;40776;52.880;6.016;2022-09-21T14:02:02;8.82;;;1.50;;
54883;SDS011;40776;52.880;6.016;2022-09-21T14:04:34;5.63;;;1.10;;
54883;SDS011;40776;52.880;6.016;2022-09-21T14:07:03;6.68;;;1.00;;
54883;SDS011;40776;52.880;6.016;2022-09-21T14:09:37;4.95;;;1.20;;
54883;SDS011;40776;52.880;6.016;2022-09-21T14:12:07;7.72;;;1.40;;
54883;SDS011;40776;52.880;6.016;2022-09-21T14:14:35;7.40;;;1.10;;
54883;SDS011;40776;52.880;6.016;2022-09-21T14:17:02;3.63;;;1.00;;
54883;SDS011;40776;52.880;6.016;2022-09-21T14:24:49;3.95;;;1.17;;
54883;SDS011;40776;52.880;6.016;2022-09-21T14:32:33;5.30;;;1.50;;
54883;SDS011;40776;52.880;6.016;2022-09-21T14:35:20;4.90;;;1.00;;
54883;SDS011;40776;52.880;6.016;2022-09-21T14:40:30;6.13;;;0.90;;
54883;SDS011;40776;52.880;6.016;2022-09-21T14:43:00;4.77;;;0.97;;
54883;SDS011;40776;52.880;6.016;2022-09-21T14:50:47;6.32;;;1.33;;
54883;SDS011;40776;52.880;6.016;2022-09-21T15:07:01;6.25;;;1.38;;
54883;SDS011;40776;52.880;6.016;2022-09-21T15:12:36;5.70;;;1.10;;
54883;SDS011;40776;52.880;6.016;2022-09-21T15:15:15;7.55;;;1.25;;
54883;SDS011;40776;52.880;6.016;2022-09-21T15:17:50;5.07;;;0.82;;
54883;SDS011;40776;52.880;6.016;2022-09-21T15:20:20;5.97;;;1.35;;
54883;SDS011;40776;52.880;6.016;2022-09-21T15:22:52;6.38;;;1.13;;
54883;SDS011;40776;52.880;6.016;2022-09-21T15:25:18;3.50;;;0.77;;
54883;SDS011;40776;52.880;6.016;2022-09-21T15:27:44;4.20;;;1.10;;
54883;SDS011;40776;52.880;6.016;2022-09-21T15:30:21;3.33;;;1.05;;
54883;SDS011;40776;52.880;6.016;2022-09-21T15:32:51;5.47;;;0.90;;
54883;SDS011;40776;52.880;6.016;2022-09-21T15:35:21;4.28;;;1.63;;
54883;SDS011;40776;52.880;6.016;2022-09-21T15:37:49;4.70;;;1.00;;
54883;SDS011;40776;52.880;6.016;2022-09-21T15:40:16;4.25;;;1.00;;
54883;SDS011;40776;52.880;6.016;2022-09-21T15:45:28;4.13;;;0.88;;
54883;SDS011;40776;52.880;6.016;2022-09-21T15:47:58;5.38;;;0.88;;
54883;SDS011;40776;52.880;6.016;2022-09-21T15:50:24;7.75;;;1.10;;
54883;SDS011;40776;52.880;6.016;2022-09-21T15:52:55;3.60;;;1.10;;
54883;SDS011;40776;52.880;6.016;2022-09-21T15:55:27;4.63;;;1.05;;
54883;SDS011;40776;52.880;6.016;2022-09-21T15:57:57;4.38;;;1.30;;
54883;SDS011;40776;52.880;6.016;2022-09-21T16:00:29;3.88;;;0.90;;
54883;SDS011;40776;52.880;6.016;2022-09-21T16:03:05;5.55;;;1.10;;
54883;SDS011;40776;52.880;6.016;2022-09-21T16:05:50;5.28;;;1.13;;
54883;SDS011;40776;52.880;6.016;2022-09-21T16:11:09;2.25;;;0.60;;
54883;SDS011;40776;52.880;6.016;2022-09-21T16:13:37;4.25;;;0.90;;
54883;SDS011;40776;52.880;6.016;2022-09-21T16:16:21;2.90;;;0.80;;
54883;SDS011;40776;52.880;6.016;2022-09-21T16:18:48;2.72;;;0.80;;
54883;SDS011;40776;52.880;6.016;2022-09-21T16:21:26;3.60;;;0.93;;
54883;SDS011;40776;52.880;6.016;2022-09-21T16:26:53;3.38;;;1.00;;
54883;SDS011;40776;52.880;6.016;2022-09-21T16:29:22;4.18;;;1.30;;
54883;SDS011;40776;52.880;6.016;2022-09-21T16:31:50;4.85;;;1.20;;
54883;SDS011;40776;52.880;6.016;2022-09-21T16:34:38;7.53;;;1.50;;
54883;SDS011;40776;52.880;6.016;2022-09-21T16:39:55;2.97;;;0.70;;
54883;SDS011;40776;52.880;6.016;2022-09-21T16:42:23;3.00;;;1.10;;
54883;SDS011;40776;52.880;6.016;2022-09-21T16:44:52;9.87;;;1.20;;
54883;SDS011;40776;52.880;6.016;2022-09-21T16:47:22;4.55;;;1.13;;
54883;SDS011;40776;52.880;6.016;2022-09-21T16:49:53;7.25;;;1.70;;
54883;SDS011;40776;52.880;6.016;2022-09-21T16:52:25;3.15;;;1.30;;
54883;SDS011;40776;52.880;6.016;2022-09-21T16:54:55;4.82;;;1.75;;
54883;SDS011;40776;52.880;6.016;2022-09-21T16:57:22;5.18;;;1.38;;
54883;SDS011;40776;52.880;6.016;2022-09-21T16:59:49;5.50;;;1.58;;
54883;SDS011;40776;52.880;6.016;2022-09-21T17:02:15;7.53;;;0.90;;
54883;SDS011;40776;52.880;6.016;2022-09-21T17:04:41;4.68;;;1.13;;
54883;SDS011;40776;52.880;6.016;2022-09-21T17:07:11;5.70;;;1.30;;
54883;SDS011;40776;52.880;6.016;2022-09-21T17:09:41;3.30;;;0.90;;
54883;SDS011;40776;52.880;6.016;2022-09-21T17:14:52;6.93;;;1.00;;
54883;SDS011;40776;52.880;6.016;2022-09-21T17:17:22;6.30;;;1.48;;
54883;SDS011;40776;52.880;6.016;2022-09-21T17:19:49;7.65;;;1.08;;
54883;SDS011;40776;52.880;6.016;2022-09-21T17:22:15;5.03;;;1.08;;
54883;SDS011;40776;52.880;6.016;2022-09-21T17:24:45;3.15;;;1.20;;
54883;SDS011;40776;52.880;6.016;2022-09-21T17:27:12;7.28;;;1.63;;
54883;SDS011;40776;52.880;6.016;2022-09-21T17:29:39;3.08;;;1.00;;
54883;SDS011;40776;52.880;6.016;2022-09-21T17:32:11;4.07;;;1.08;;
54883;SDS011;40776;52.880;6.016;2022-09-21T17:34:38;6.22;;;2.17;;
54883;SDS011;40776;52.880;6.016;2022-09-21T17:37:06;7.28;;;1.52;;
54883;SDS011;40776;52.880;6.016;2022-09-21T17:39:33;6.15;;;1.40;;
54883;SDS011;40776;52.880;6.016;2022-09-21T17:42:33;4.20;;;1.27;;
54883;SDS011;40776;52.880;6.016;2022-09-21T17:47:38;2.88;;;1.23;;
54883;SDS011;40776;52.880;6.016;2022-09-21T17:52:37;5.70;;;2.00;;
54883;SDS011;40776;52.880;6.016;2022-09-21T17:55:22;9.57;;;2.50;;
54883;SDS011;40776;52.880;6.016;2022-09-21T18:00:31;8.23;;;1.73;;
54883;SDS011;40776;52.880;6.016;2022-09-21T18:02:59;5.55;;;1.80;;
54883;SDS011;40776;52.880;6.016;2022-09-21T18:05:28;4.90;;;1.65;;
54883;SDS011;40776;52.880;6.016;2022-09-21T18:07:55;3.17;;;1.25;;
54883;SDS011;40776;52.880;6.016;2022-09-21T18:10:22;5.10;;;1.23;;
54883;SDS011;40776;52.880;6.016;2022-09-21T18:20:28;4.47;;;1.40;;
54883;SDS011;40776;52.880;6.016;2022-09-21T18:26:03;2.90;;;1.50;;
54883;SDS011;40776;52.880;6.016;2022-09-21T18:28:38;5.80;;;1.77;;
54883;SDS011;40776;52.880;6.016;2022-09-21T18:36:47;14.25;;;3.97;;
54883;SDS011;40776;52.880;6.016;2022-09-21T18:48:05;7.63;;;4.68;;
54883;SDS011;40776;52.880;6.016;2022-09-21T18:55:36;8.73;;;3.92;;
54883;SDS011;40776;52.880;6.016;2022-09-21T18:58:02;10.43;;;4.47;;
54883;SDS011;40776;52.880;6.016;2022-09-21T19:00:29;10.32;;;4.25;;
54883;SDS011;40776;52.880;6.016;2022-09-21T19:02:59;9.23;;;3.83;;
54883;SDS011;40776;52.880;6.016;2022-09-21T19:05:25;10.18;;;3.10;;
54883;SDS011;40776;52.880;6.016;2022-09-21T19:08:13;11.52;;;3.60;;
54883;SDS011;40776;52.880;6.016;2022-09-21T19:10:47;11.07;;;4.20;;
54883;SDS011;40776;52.880;6.016;2022-09-21T19:18:22;10.23;;;3.70;;
54883;SDS011;40776;52.880;6.016;2022-09-21T19:25:54;8.77;;;4.00;;
54883;SDS011;40776;52.880;6.016;2022-09-21T19:30:49;9.20;;;3.80;;
54883;SDS011;40776;52.880;6.016;2022-09-21T19:33:40;9.68;;;3.90;;
54883;SDS011;40776;52.880;6.016;2022-09-21T19:36:05;9.98;;;4.60;;
54883;SDS011;40776;52.880;6.016;2022-09-21T19:38:31;8.93;;;4.07;;
54883;SDS011;40776;52.880;6.016;2022-09-21T19:41:02;12.60;;;4.13;;
54883;SDS011;40776;52.880;6.016;2022-09-21T19:43:34;10.43;;;4.80;;
54883;SDS011;40776;52.880;6.016;2022-09-21T19:48:35;10.93;;;4.93;;
54883;SDS011;40776;52.880;6.016;2022-09-21T19:51:07;9.98;;;5.85;;
54883;SDS011;40776;52.880;6.016;2022-09-21T19:53:37;18.77;;;6.53;;
54883;SDS011;40776;52.880;6.016;2022-09-21T19:56:21;9.32;;;5.40;;
54883;SDS011;40776;52.880;6.016;2022-09-21T19:59:07;16.55;;;5.40;;
54883;SDS011;40776;52.880;6.016;2022-09-21T20:01:55;12.65;;;5.45;;
54883;SDS011;40776;52.880;6.016;2022-09-21T20:06:51;12.10;;;5.00;;
54883;SDS011;40776;52.880;6.016;2022-09-21T20:11:47;8.23;;;4.63;;
54883;SDS011;40776;52.880;6.016;2022-09-21T20:14:27;14.15;;;5.63;;
54883;SDS011;40776;52.880;6.016;2022-09-21T20:16:57;10.70;;;5.68;;
54883;SDS011;40776;52.880;6.016;2022-09-21T20:21:52;11.43;;;5.80;;
54883;SDS011;40776;52.880;6.016;2022-09-21T20:24:23;10.68;;;5.38;;
54883;SDS011;40776;52.880;6.016;2022-09-21T20:26:50;13.43;;;6.30;;
54883;SDS011;40776;52.880;6.016;2022-09-21T20:29:17;12.02;;;6.30;;
54883;SDS011;40776;52.880;6.016;2022-09-21T20:31:43;13.52;;;5.80;;
54883;SDS011;40776;52.880;6.016;2022-09-21T20:34:11;8.60;;;5.03;;
54883;SDS011;40776;52.880;6.016;2022-09-21T20:36:37;10.98;;;5.25;;
54883;SDS011;40776;52.880;6.016;2022-09-21T20:39:03;10.93;;;4.60;;
54883;SDS011;40776;52.880;6.016;2022-09-21T20:41:30;8.45;;;4.00;;
54883;SDS011;40776;52.880;6.016;2022-09-21T20:43:56;7.28;;;3.60;;
54883;SDS011;40776;52.880;6.016;2022-09-21T20:46:23;10.63;;;4.00;;
54883;SDS011;40776;52.880;6.016;2022-09-21T20:48:49;8.23;;;3.88;;
54883;SDS011;40776;52.880;6.016;2022-09-21T20:51:21;7.78;;;3.85;;
54883;SDS011;40776;52.880;6.016;2022-09-21T20:53:47;9.05;;;4.90;;
54883;SDS011;40776;52.880;6.016;2022-09-21T20:56:13;7.70;;;3.78;;
54883;SDS011;40776;52.880;6.016;2022-09-21T20:58:39;9.50;;;4.45;;
54883;SDS011;40776;52.880;6.016;2022-09-21T21:01:06;13.60;;;4.75;;
54883;SDS011;40776;52.880;6.016;2022-09-21T21:03:33;11.02;;;5.10;;
54883;SDS011;40776;52.880;6.016;2022-09-21T21:06:12;13.73;;;4.38;;
54883;SDS011;40776;52.880;6.016;2022-09-21T21:08:39;11.35;;;5.28;;
54883;SDS011;40776;52.880;6.016;2022-09-21T21:11:06;11.00;;;5.18;;
54883;SDS011;40776;52.880;6.016;2022-09-21T21:13:32;9.65;;;5.30;;
54883;SDS011;40776;52.880;6.016;2022-09-21T21:15:58;9.82;;;5.70;;
54883;SDS011;40776;52.880;6.016;2022-09-21T21:18:24;7.90;;;4.45;;
54883;SDS011;40776;52.880;6.016;2022-09-21T21:20:51;11.80;;;4.40;;
54883;SDS011;40776;52.880;6.016;2022-09-21T21:23:17;12.60;;;3.85;;
54883;SDS011;40776;52.880;6.016;2022-09-21T21:25:43;6.63;;;3.75;;
54883;SDS011;40776;52.880;6.016;2022-09-21T21:28:10;7.13;;;4.15;;
54883;SDS011;40776;52.880;6.016;2022-09-21T21:30:36;9.45;;;3.88;;
54883;SDS011;40776;52.880;6.016;2022-09-21T21:33:03;5.78;;;3.22;;
54883;SDS011;40776;52.880;6.016;2022-09-21T21:35:29;8.48;;;3.30;;
54883;SDS011;40776;52.880;6.016;2022-09-21T21:37:56;7.07;;;3.38;;
54883;SDS011;40776;52.880;6.016;2022-09-21T21:40:23;11.77;;;3.80;;
54883;SDS011;40776;52.880;6.016;2022-09-21T21:42:50;9.02;;;3.67;;
54883;SDS011;40776;52.880;6.016;2022-09-21T21:45:16;7.55;;;3.25;;
54883;SDS011;40776;52.880;6.016;2022-09-21T21:47:42;7.65;;;3.40;;
54883;SDS011;40776;52.880;6.016;2022-09-21T21:50:09;7.25;;;3.65;;
54883;SDS011;40776;52.880;6.016;2022-09-21T21:52:35;6.55;;;3.25;;
54883;SDS011;40776;52.880;6.016;2022-09-21T21:55:02;5.88;;;2.80;;
54883;SDS011;40776;52.880;6.016;2022-09-21T21:57:28;7.03;;;3.00;;
54883;SDS011;40776;52.880;6.016;2022-09-21T21:59:54;7.63;;;3.20;;
54883;SDS011;40776;52.880;6.016;2022-09-21T22:02:20;9.48;;;3.45;;
54883;SDS011;40776;52.880;6.016;2022-09-21T22:04:47;5.65;;;3.13;;
54883;SDS011;40776;52.880;6.016;2022-09-21T22:07:13;5.82;;;3.60;;
54883;SDS011;40776;52.880;6.016;2022-09-21T22:09:39;6.90;;;3.40;;
54883;SDS011;40776;52.880;6.016;2022-09-21T22:12:05;4.22;;;2.67;;
54883;SDS011;40776;52.880;6.016;2022-09-21T22:14:32;10.38;;;3.47;;
54883;SDS011;40776;52.880;6.016;2022-09-21T22:16:58;6.47;;;2.90;;
54883;SDS011;40776;52.880;6.016;2022-09-21T22:19:24;5.50;;;3.05;;
54883;SDS011;40776;52.880;6.016;2022-09-21T22:21:50;6.20;;;3.40;;
54883;SDS011;40776;52.880;6.016;2022-09-21T22:24:17;7.20;;;3.00;;
54883;SDS011;40776;52.880;6.016;2022-09-21T22:26:45;5.82;;;3.20;;
54883;SDS011;40776;52.880;6.016;2022-09-21T22:29:13;7.25;;;3.17;;
54883;SDS011;40776;52.880;6.016;2022-09-21T22:31:40;6.35;;;3.35;;
54883;SDS011;40776;52.880;6.016;2022-09-21T22:34:06;6.47;;;2.95;;
54883;SDS011;40776;52.880;6.016;2022-09-21T22:36:34;5.97;;;3.58;;
54883;SDS011;40776;52.880;6.016;2022-09-21T22:39:00;5.40;;;3.00;;
54883;SDS011;40776;52.880;6.016;2022-09-21T22:41:27;6.80;;;3.00;;
54883;SDS011;40776;52.880;6.016;2022-09-21T22:43:54;7.97;;;3.85;;
54883;SDS011;40776;52.880;6.016;2022-09-21T22:46:21;7.22;;;3.17;;
54883;SDS011;40776;52.880;6.016;2022-09-21T22:48:48;5.13;;;2.92;;
54883;SDS011;40776;52.880;6.016;2022-09-21T22:51:14;6.00;;;2.70;;
54883;SDS011;40776;52.880;6.016;2022-09-21T22:53:41;6.45;;;3.00;;
54883;SDS011;40776;52.880;6.016;2022-09-21T22:56:08;8.50;;;2.95;;
54883;SDS011;40776;52.880;6.016;2022-09-21T22:58:35;4.00;;;2.88;;
54883;SDS011;40776;52.880;6.016;2022-09-21T23:01:12;6.70;;;4.22;;
54883;SDS011;40776;52.880;6.016;2022-09-21T23:03:39;6.35;;;2.78;;
54883;SDS011;40776;52.880;6.016;2022-09-21T23:06:06;4.38;;;2.92;;
54883;SDS011;40776;52.880;6.016;2022-09-21T23:08:32;6.30;;;3.20;;
54883;SDS011;40776;52.880;6.016;2022-09-21T23:11:10;6.30;;;3.78;;
54883;SDS011;40776;52.880;6.016;2022-09-21T23:13:37;7.72;;;3.03;;
54883;SDS011;40776;52.880;6.016;2022-09-21T23:16:04;3.85;;;2.50;;
54883;SDS011;40776;52.880;6.016;2022-09-21T23:18:30;5.72;;;3.50;;
54883;SDS011;40776;52.880;6.016;2022-09-21T23:20:57;4.10;;;2.88;;
54883;SDS011;40776;52.880;6.016;2022-09-21T23:23:24;5.18;;;2.55;;
54883;SDS011;40776;52.880;6.016;2022-09-21T23:26:03;8.95;;;3.10;;
54883;SDS011;40776;52.880;6.016;2022-09-21T23:28:30;5.53;;;3.00;;
54883;SDS011;40776;52.880;6.016;2022-09-21T23:30:57;8.10;;;3.30;;
54883;SDS011;40776;52.880;6.016;2022-09-21T23:33:27;5.90;;;2.78;;
54883;SDS011;40776;52.880;6.016;2022-09-21T23:35:54;6.00;;;3.00;;
54883;SDS011;40776;52.880;6.016;2022-09-21T23:38:20;6.10;;;2.80;;
54883;SDS011;40776;52.880;6.016;2022-09-21T23:40:46;5.32;;;3.28;;
54883;SDS011;40776;52.880;6.016;2022-09-21T23:43:12;6.82;;;3.35;;
54883;SDS011;40776;52.880;6.016;2022-09-21T23:45:39;4.97;;;3.17;;
54883;SDS011;40776;52.880;6.016;2022-09-21T23:48:06;6.75;;;3.25;;
54883;SDS011;40776;52.880;6.016;2022-09-21T23:50:32;6.70;;;3.13;;
54883;SDS011;40776;52.880;6.016;2022-09-21T23:52:58;3.58;;;2.50;;
54883;SDS011;40776;52.880;6.016;2022-09-21T23:55:24;8.43;;;3.05;;
54883;SDS011;40776;52.880;6.016;2022-09-21T23:57:50;6.45;;;3.22;;
